Time;durP1;ratioP1;P1;durP2;ratioP2;P2;SDS_P1;SDS_P2;PMS_P1;PMS_P2;Temp;Humidity;BMP_temperature;BMP_pressure;BME280_temperature;BME280_humidity;BME280_pressure;Samples;Min_cycle;Max_cycle;Signal;HPM_P1;HPM_P2
2022/06/12 00:00:05;;;;;;;4.30;3.87;;;;;;;;;;4954922;29;20877;-53
2022/06/12 00:02:31;;;;;;;6.67;4.10;;;;;;;;;;4955186;29;20405;-52
2022/06/12 00:04:57;;;;;;;5.47;4.67;;;;;;;;;;4955258;29;20563;-52
2022/06/12 00:07:23;;;;;;;13.03;4.97;;;;;;;;;;4955082;29;21073;-52
2022/06/12 00:09:49;;;;;;;6.00;4.70;;;;;;;;;;4954911;29;20478;-52
2022/06/12 00:12:15;;;;;;;8.67;5.83;;;;;;;;;;4954843;29;20379;-52
2022/06/12 00:14:42;;;;;;;9.30;4.20;;;;;;;;;;4955213;29;20888;-52
2022/06/12 00:17:08;;;;;;;4.97;4.47;;;;;;;;;;4954944;29;20429;-52
2022/06/12 00:19:34;;;;;;;9.20;4.50;;;;;;;;;;4954845;29;20884;-52
2022/06/12 00:22:00;;;;;;;8.00;4.33;;;;;;;;;;4954635;29;20497;-52
2022/06/12 00:24:27;;;;;;;6.23;4.60;;;;;;;;;;4954686;29;20934;-53
2022/06/12 00:26:54;;;;;;;6.03;5.30;;;;;;;;;;4954719;29;20573;-52
2022/06/12 00:29:27;;;;;;;6.67;4.30;;;;;;;;;;4954783;29;20499;-52
2022/06/12 00:31:58;;;;;;;16.73;5.17;;;;;;;;;;4954408;29;20409;-52
2022/06/12 00:34:27;;;;;;;14.23;5.00;;;;;;;;;;4954674;29;20408;-52
2022/06/12 00:36:54;;;;;;;7.03;5.47;;;;;;;;;;4954518;29;20905;-52
2022/06/12 00:39:20;;;;;;;8.13;5.50;;;;;;;;;;4954613;29;20851;-52
2022/06/12 00:41:48;;;;;;;7.53;5.37;;;;;;;;;;4954136;29;20421;-52
2022/06/12 00:44:18;;;;;;;7.77;6.00;;;;;;;;;;4954410;29;20442;-52
2022/06/12 00:46:46;;;;;;;11.20;5.20;;;;;;;;;;4954204;29;20443;-52
2022/06/12 00:49:24;;;;;;;9.03;5.67;;;;;;;;;;4954330;29;20379;-52
2022/06/12 00:51:52;;;;;;;10.40;5.80;;;;;;;;;;4954001;29;20503;-52
2022/06/12 00:54:18;;;;;;;10.23;5.70;;;;;;;;;;4954342;29;20421;-52
2022/06/12 00:56:49;;;;;;;9.83;6.53;;;;;;;;;;4954184;29;20409;-52
2022/06/12 00:59:32;;;;;;;10.03;5.93;;;;;;;;;;4954225;29;20832;-52
2022/06/12 01:01:58;;;;;;;9.80;5.63;;;;;;;;;;4953454;28;20821;-52
2022/06/12 01:07:11;;;;;;;8.90;6.13;;;;;;;;;;4954269;29;20519;-52
2022/06/12 01:09:40;;;;;;;8.80;5.80;;;;;;;;;;4953934;29;20418;-52
2022/06/12 01:12:09;;;;;;;9.23;7.47;;;;;;;;;;4953651;29;20370;-52
2022/06/12 01:14:36;;;;;;;10.83;5.90;;;;;;;;;;4954034;29;20390;-52
2022/06/12 01:17:03;;;;;;;6.90;5.87;;;;;;;;;;4953744;29;20823;-52
2022/06/12 01:19:50;;;;;;;7.93;5.43;;;;;;;;;;4954045;29;20388;-52
2022/06/12 01:22:22;;;;;;;6.57;5.80;;;;;;;;;;4953598;28;20407;-52
2022/06/12 01:25:05;;;;;;;14.60;6.60;;;;;;;;;;4953871;29;20389;-52
2022/06/12 01:27:31;;;;;;;12.63;7.80;;;;;;;;;;4953787;29;20441;-52
2022/06/12 01:30:07;;;;;;;8.67;6.40;;;;;;;;;;4953642;29;20373;-52
2022/06/12 01:32:38;;;;;;;14.20;6.57;;;;;;;;;;4953848;29;20404;-52
2022/06/12 01:35:09;;;;;;;10.87;6.10;;;;;;;;;;4953717;29;20486;-52
2022/06/12 01:37:44;;;;;;;13.33;6.03;;;;;;;;;;4953846;29;20563;-52
2022/06/12 01:40:19;;;;;;;9.17;6.60;;;;;;;;;;4953473;29;20487;-52
2022/06/12 01:42:53;;;;;;;9.10;6.73;;;;;;;;;;4953570;29;20431;-52
2022/06/12 01:45:35;;;;;;;7.50;6.30;;;;;;;;;;4953750;29;20382;-52
2022/06/12 01:48:19;;;;;;;10.60;7.20;;;;;;;;;;4953681;29;20405;-52
2022/06/12 01:50:54;;;;;;;14.70;7.90;;;;;;;;;;4953513;29;20441;-52
2022/06/12 01:53:28;;;;;;;13.67;7.30;;;;;;;;;;4953657;29;20442;-52
2022/06/12 01:55:57;;;;;;;14.70;6.57;;;;;;;;;;4953530;29;20426;-52
2022/06/12 01:58:30;;;;;;;9.40;7.60;;;;;;;;;;4953715;28;20459;-52
2022/06/12 02:01:04;;;;;;;15.03;7.00;;;;;;;;;;4953290;29;20407;-52
2022/06/12 02:03:31;;;;;;;14.10;7.13;;;;;;;;;;4953465;29;20428;-52
2022/06/12 02:06:03;;;;;;;9.00;7.30;;;;;;;;;;4953507;29;20420;-52
2022/06/12 02:08:33;;;;;;;8.23;6.40;;;;;;;;;;4953345;29;20440;-52
2022/06/12 02:13:54;;;;;;;13.40;7.00;;;;;;;;;;4956924;29;20453;-52
2022/06/12 02:16:23;;;;;;;8.37;6.33;;;;;;;;;;4957159;29;20436;-52
2022/06/12 02:18:57;;;;;;;7.27;6.40;;;;;;;;;;4956890;29;20459;-52
2022/06/12 02:21:29;;;;;;;11.60;6.90;;;;;;;;;;4956845;29;20377;-52
2022/06/12 02:23:58;;;;;;;8.63;6.80;;;;;;;;;;4957131;29;20461;-52
2022/06/12 02:26:27;;;;;;;8.67;5.97;;;;;;;;;;4956932;29;20430;-52
2022/06/12 02:28:56;;;;;;;11.03;6.90;;;;;;;;;;4957023;29;20464;-52
2022/06/12 02:31:26;;;;;;;10.80;7.30;;;;;;;;;;4956371;29;20437;-52
2022/06/12 02:33:56;;;;;;;11.60;7.67;;;;;;;;;;4956822;29;20380;-52
2022/06/12 02:36:25;;;;;;;9.73;7.60;;;;;;;;;;4956816;29;20423;-52
2022/06/12 02:39:00;;;;;;;16.40;7.17;;;;;;;;;;4956602;29;20576;-52
2022/06/12 02:41:28;;;;;;;7.30;6.30;;;;;;;;;;4956488;29;20383;-52
2022/06/12 02:43:57;;;;;;;7.97;7.13;;;;;;;;;;4956511;29;20460;-52
2022/06/12 02:46:26;;;;;;;13.00;7.90;;;;;;;;;;4956467;29;20831;-52
2022/06/12 02:48:52;;;;;;;7.83;6.57;;;;;;;;;;4956546;29;20387;-52
2022/06/12 02:51:28;;;;;;;12.00;7.53;;;;;;;;;;4956191;29;20406;-52
2022/06/12 02:53:59;;;;;;;13.43;7.17;;;;;;;;;;4956510;29;20443;-52
2022/06/12 02:56:30;;;;;;;11.63;8.30;;;;;;;;;;4956628;29;20401;-52
2022/06/12 02:58:59;;;;;;;8.33;6.10;;;;;;;;;;4956451;29;20525;-52
2022/06/12 03:01:35;;;;;;;12.47;7.00;;;;;;;;;;4955988;29;20776;-52
2022/06/12 03:04:06;;;;;;;11.73;6.33;;;;;;;;;;4956292;29;20463;-52
2022/06/12 03:06:34;;;;;;;6.80;5.90;;;;;;;;;;4956154;29;20425;-52
2022/06/12 03:09:00;;;;;;;10.90;6.77;;;;;;;;;;4956257;29;20806;-52
2022/06/12 03:11:33;;;;;;;10.17;6.87;;;;;;;;;;4956216;29;20466;-52
2022/06/12 03:14:00;;;;;;;10.73;6.33;;;;;;;;;;4956156;29;20450;-52
2022/06/12 03:16:31;;;;;;;10.63;6.53;;;;;;;;;;4955940;29;20434;-52
2022/06/12 03:19:03;;;;;;;10.33;6.90;;;;;;;;;;4956074;29;20405;-52
2022/06/12 03:21:39;;;;;;;10.00;6.60;;;;;;;;;;4955702;29;20438;-52
2022/06/12 03:24:05;;;;;;;8.40;6.13;;;;;;;;;;4954657;28;20536;-52
2022/06/12 03:26:48;;;;;;;11.23;7.47;;;;;;;;;;4955666;29;20495;-52
2022/06/12 03:29:33;;;;;;;15.60;6.90;;;;;;;;;;4955909;29;20400;-52
2022/06/12 03:32:18;;;;;;;8.60;6.70;;;;;;;;;;4955241;29;20386;-52
2022/06/12 03:35:02;;;;;;;7.10;6.40;;;;;;;;;;4955793;29;20443;-52
2022/06/12 03:37:54;;;;;;;9.63;6.40;;;;;;;;;;4955594;29;20439;-52
2022/06/12 03:40:27;;;;;;;10.67;6.90;;;;;;;;;;4933146;28;20421;-52
2022/06/12 03:42:56;;;;;;;11.20;8.00;;;;;;;;;;4955595;29;20464;-52
2022/06/12 03:45:29;;;;;;;9.63;6.67;;;;;;;;;;4955618;29;20386;-52
2022/06/12 03:48:06;;;;;;;7.90;7.10;;;;;;;;;;4955332;29;20427;-52
2022/06/12 03:50:55;;;;;;;11.50;6.73;;;;;;;;;;4955296;29;20392;-52
2022/06/12 03:53:24;;;;;;;10.93;7.27;;;;;;;;;;4947665;28;20491;-52
2022/06/12 03:58:38;;;;;;;11.77;6.90;;;;;;;;;;4955408;29;20805;-52
2022/06/12 04:01:05;;;;;;;8.70;6.13;;;;;;;;;;4955005;29;20442;-52
2022/06/12 04:03:34;;;;;;;11.40;7.20;;;;;;;;;;4955123;29;20466;-52
2022/06/12 04:06:05;;;;;;;10.77;7.57;;;;;;;;;;4955217;29;20414;-52
2022/06/12 04:08:42;;;;;;;9.00;6.87;;;;;;;;;;4955105;29;20374;-52
2022/06/12 04:11:09;;;;;;;8.97;7.30;;;;;;;;;;4954866;29;20417;-52
2022/06/12 04:13:40;;;;;;;7.40;6.70;;;;;;;;;;4954953;29;20917;-52
2022/06/12 04:16:15;;;;;;;12.97;7.53;;;;;;;;;;4954828;29;20402;-52
2022/06/12 04:18:41;;;;;;;12.40;6.40;;;;;;;;;;4954932;29;20842;-52
2022/06/12 04:21:27;;;;;;;10.50;6.87;;;;;;;;;;4954652;29;20402;-52
2022/06/12 04:24:00;;;;;;;11.60;6.30;;;;;;;;;;4954974;29;20463;-52
2022/06/12 04:26:26;;;;;;;8.00;6.70;;;;;;;;;;4954799;29;20449;-52
2022/06/12 04:29:12;;;;;;;8.80;7.47;;;;;;;;;;4954726;29;20417;-52
2022/06/12 04:31:41;;;;;;;9.37;6.97;;;;;;;;;;4944228;29;20933;-52
2022/06/12 04:34:12;;;;;;;9.30;6.70;;;;;;;;;;4954659;29;20442;-52
2022/06/12 04:36:39;;;;;;;7.83;6.93;;;;;;;;;;4954151;28;20402;-52
2022/06/12 04:39:05;;;;;;;7.87;6.90;;;;;;;;;;4954397;29;20918;-52
2022/06/12 04:41:35;;;;;;;11.90;6.70;;;;;;;;;;4954282;29;20894;-52
2022/06/12 04:44:01;;;;;;;9.20;6.30;;;;;;;;;;4954465;29;20430;-52
2022/06/12 04:46:27;;;;;;;7.63;6.77;;;;;;;;;;4955186;29;20511;-53
2022/06/12 04:48:55;;;;;;;10.50;7.47;;;;;;;;;;4954683;29;20408;-54
2022/06/12 04:51:21;;;;;;;10.13;6.53;;;;;;;;;;4954769;29;20752;-53
2022/06/12 04:53:48;;;;;;;13.70;8.17;;;;;;;;;;4954729;29;20410;-52
2022/06/12 04:56:15;;;;;;;25.13;6.77;;;;;;;;;;4954272;29;20428;-52
2022/06/12 04:58:41;;;;;;;16.23;7.27;;;;;;;;;;4954036;29;20787;-53
2022/06/12 05:01:08;;;;;;;12.13;6.70;;;;;;;;;;4953641;29;20972;-53
2022/06/12 05:03:34;;;;;;;12.70;5.93;;;;;;;;;;4952093;28;20454;-53
2022/06/12 05:06:00;;;;;;;8.00;6.40;;;;;;;;;;4954324;29;20415;-53
2022/06/12 05:08:26;;;;;;;12.03;6.23;;;;;;;;;;4954589;29;20388;-52
2022/06/12 05:10:52;;;;;;;8.17;5.97;;;;;;;;;;4954889;29;20751;-53
2022/06/12 05:13:18;;;;;;;7.07;5.90;;;;;;;;;;4955101;29;20412;-51
2022/06/12 05:15:45;;;;;;;8.63;5.80;;;;;;;;;;4954958;29;20380;-52
2022/06/12 05:18:12;;;;;;;7.17;5.50;;;;;;;;;;4955197;29;20409;-52
2022/06/12 05:20:39;;;;;;;10.60;5.70;;;;;;;;;;4954158;29;20391;-53
2022/06/12 05:23:06;;;;;;;14.57;5.70;;;;;;;;;;4954703;29;20455;-52
2022/06/12 05:25:32;;;;;;;20.27;6.03;;;;;;;;;;4954861;29;20392;-53
2022/06/12 05:27:58;;;;;;;14.97;6.17;;;;;;;;;;4954691;29;20380;-52
2022/06/12 05:30:26;;;;;;;8.27;5.30;;;;;;;;;;4953922;29;20556;-53
2022/06/12 05:32:53;;;;;;;9.33;5.20;;;;;;;;;;4954443;29;20405;-53
2022/06/12 05:35:20;;;;;;;10.07;5.70;;;;;;;;;;4954558;29;20500;-53
2022/06/12 05:37:46;;;;;;;7.00;4.60;;;;;;;;;;4953285;28;20412;-53
2022/06/12 05:40:14;;;;;;;16.10;5.20;;;;;;;;;;4954266;29;20414;-52
2022/06/12 05:42:40;;;;;;;10.53;4.47;;;;;;;;;;4954395;29;20972;-53
2022/06/12 05:45:07;;;;;;;8.47;4.90;;;;;;;;;;4954523;29;20915;-53
2022/06/12 05:47:33;;;;;;;11.50;4.80;;;;;;;;;;4955690;28;20427;-53
2022/06/12 05:50:00;;;;;;;7.37;4.77;;;;;;;;;;4958290;29;20401;-53
2022/06/12 05:52:26;;;;;;;6.77;4.33;;;;;;;;;;4958539;29;20422;-52
2022/06/12 05:54:52;;;;;;;6.43;4.20;;;;;;;;;;4958888;29;20426;-53
2022/06/12 05:57:18;;;;;;;7.27;4.13;;;;;;;;;;4958004;29;20436;-50
2022/06/12 05:59:44;;;;;;;12.53;4.40;;;;;;;;;;4957357;29;20410;-51
2022/06/12 06:02:11;;;;;;;9.60;4.60;;;;;;;;;;4957384;29;20388;-51
2022/06/12 06:04:36;;;;;;;5.60;3.90;;;;;;;;;;4956951;29;20560;-51
2022/06/12 06:07:03;;;;;;;9.63;4.30;;;;;;;;;;4957051;29;20492;-51
2022/06/12 06:09:29;;;;;;;6.00;3.83;;;;;;;;;;4957141;29;20399;-51
2022/06/12 06:11:55;;;;;;;10.00;4.10;;;;;;;;;;4956683;29;20399;-51
2022/06/12 06:14:21;;;;;;;12.70;4.07;;;;;;;;;;4957089;29;20426;-51
2022/06/12 06:16:47;;;;;;;4.10;3.17;;;;;;;;;;4956841;29;20429;-51
2022/06/12 06:19:14;;;;;;;8.20;4.10;;;;;;;;;;4957149;29;20465;-51
2022/06/12 06:21:40;;;;;;;11.77;4.00;;;;;;;;;;4956783;29;20443;-52
2022/06/12 06:24:07;;;;;;;8.47;3.67;;;;;;;;;;4957023;29;20961;-51
2022/06/12 06:26:34;;;;;;;6.83;3.30;;;;;;;;;;4956853;29;20429;-51
2022/06/12 06:29:00;;;;;;;7.53;3.60;;;;;;;;;;4956998;29;20882;-51
2022/06/12 06:31:26;;;;;;;7.07;4.23;;;;;;;;;;4956210;29;20386;-52
2022/06/12 06:33:52;;;;;;;4.23;3.10;;;;;;;;;;4956893;29;20439;-51
2022/06/12 06:36:19;;;;;;;4.30;3.40;;;;;;;;;;4956722;29;20481;-51
2022/06/12 06:38:45;;;;;;;4.80;2.63;;;;;;;;;;4957110;29;21049;-51
2022/06/12 06:41:11;;;;;;;5.43;2.83;;;;;;;;;;4956506;29;20414;-51
2022/06/12 06:46:27;;;;;;;6.97;2.80;;;;;;;;;;4937518;29;20459;-52
2022/06/12 06:48:53;;;;;;;6.20;2.50;;;;;;;;;;4956499;29;20908;-51
2022/06/12 06:51:19;;;;;;;10.53;2.40;;;;;;;;;;4956241;29;20387;-52
2022/06/12 06:53:45;;;;;;;5.20;2.13;;;;;;;;;;4956421;29;20412;-51
2022/06/12 06:56:11;;;;;;;11.33;2.47;;;;;;;;;;4956449;29;20415;-52
2022/06/12 06:58:37;;;;;;;9.00;3.30;;;;;;;;;;4956028;28;20404;-51
2022/06/12 07:01:04;;;;;;;9.00;3.00;;;;;;;;;;4956110;29;20386;-51
2022/06/12 07:03:30;;;;;;;11.63;3.27;;;;;;;;;;4956159;29;20474;-51
2022/06/12 07:05:57;;;;;;;9.53;2.70;;;;;;;;;;4956251;29;20407;-51
2022/06/12 07:08:25;;;;;;;6.17;2.87;;;;;;;;;;4956219;29;20401;-51
2022/06/12 07:10:52;;;;;;;5.87;2.37;;;;;;;;;;4955980;29;20409;-51
2022/06/12 07:13:18;;;;;;;5.57;2.47;;;;;;;;;;4956227;29;20390;-51
2022/06/12 07:15:44;;;;;;;10.73;3.30;;;;;;;;;;4956065;29;20421;-51
2022/06/12 07:18:11;;;;;;;10.37;3.37;;;;;;;;;;4956002;29;20413;-53
2022/06/12 07:20:39;;;;;;;7.67;2.60;;;;;;;;;;4955784;29;20384;-51
2022/06/12 07:23:06;;;;;;;6.20;2.87;;;;;;;;;;4955886;29;20451;-51
2022/06/12 07:25:33;;;;;;;4.60;2.27;;;;;;;;;;4956042;29;20398;-50
2022/06/12 07:27:59;;;;;;;2.87;2.00;;;;;;;;;;4955883;29;20800;-50
2022/06/12 07:30:25;;;;;;;7.37;2.00;;;;;;;;;;4955609;29;20902;-51
2022/06/12 07:32:51;;;;;;;7.27;3.03;;;;;;;;;;4956152;29;20412;-51
2022/06/12 07:35:17;;;;;;;3.67;2.50;;;;;;;;;;4955824;29;20404;-51
2022/06/12 07:37:44;;;;;;;6.57;2.60;;;;;;;;;;4955668;29;20429;-51
2022/06/12 07:40:14;;;;;;;5.83;1.90;;;;;;;;;;4955400;29;20403;-52
2022/06/12 07:42:40;;;;;;;8.03;2.37;;;;;;;;;;4955588;29;20825;-51
2022/06/12 07:45:06;;;;;;;5.20;2.63;;;;;;;;;;4955529;29;20413;-51
2022/06/12 07:47:32;;;;;;;7.40;2.30;;;;;;;;;;4955247;29;20541;-52
2022/06/12 07:49:59;;;;;;;5.50;2.63;;;;;;;;;;4955254;29;20846;-51
2022/06/12 07:52:26;;;;;;;5.93;2.27;;;;;;;;;;4955520;29;20787;-51
2022/06/12 07:54:52;;;;;;;8.10;2.80;;;;;;;;;;4955405;29;20468;-52
2022/06/12 07:57:18;;;;;;;5.90;2.53;;;;;;;;;;4955382;29;20433;-51
2022/06/12 07:59:44;;;;;;;6.33;2.47;;;;;;;;;;4955186;29;20438;-51
2022/06/12 08:02:11;;;;;;;5.30;2.20;;;;;;;;;;4955000;29;20415;-52
2022/06/12 08:04:37;;;;;;;7.60;2.23;;;;;;;;;;4955176;29;20462;-51
2022/06/12 08:07:03;;;;;;;4.20;2.43;;;;;;;;;;4955251;29;20922;-51
2022/06/12 08:09:29;;;;;;;9.33;2.77;;;;;;;;;;4954827;28;20409;-51
2022/06/12 08:11:56;;;;;;;7.03;2.20;;;;;;;;;;4954509;29;20415;-51
2022/06/12 08:14:23;;;;;;;2.83;2.00;;;;;;;;;;4955053;29;20413;-51
2022/06/12 08:16:48;;;;;;;5.63;2.37;;;;;;;;;;4954867;29;20540;-51
2022/06/12 08:22:01;;;;;;;6.23;2.30;;;;;;;;;;4954783;29;20405;-52
2022/06/12 08:24:27;;;;;;;7.13;2.30;;;;;;;;;;4954764;29;20453;-51
2022/06/12 08:26:53;;;;;;;7.70;2.30;;;;;;;;;;4954768;29;20425;-51
2022/06/12 08:29:19;;;;;;;3.73;2.10;;;;;;;;;;4954770;29;20496;-52
2022/06/12 08:31:47;;;;;;;2.80;1.87;;;;;;;;;;4954392;29;20405;-52
2022/06/12 08:34:16;;;;;;;2.50;1.57;;;;;;;;;;4954722;29;20792;-52
2022/06/12 08:36:42;;;;;;;8.97;2.50;;;;;;;;;;4954480;29;20909;-52
2022/06/12 08:39:09;;;;;;;2.87;1.80;;;;;;;;;;4954641;29;20428;-53
2022/06/12 08:41:54;;;;;;;5.77;2.60;;;;;;;;;;4956536;28;20821;-51
2022/06/12 08:44:23;;;;;;;4.23;1.50;;;;;;;;;;4973557;28;20488;-52
2022/06/12 08:46:53;;;;;;;4.80;2.10;;;;;;;;;;4973431;28;20837;-52
2022/06/12 08:49:35;;;;;;;4.60;1.90;;;;;;;;;;4973704;28;20889;-52
2022/06/12 08:52:04;;;;;;;5.43;2.57;;;;;;;;;;4973196;28;20896;-52
2022/06/12 08:54:33;;;;;;;4.10;2.10;;;;;;;;;;4973526;28;20404;-52
2022/06/12 08:57:04;;;;;;;6.20;2.30;;;;;;;;;;4973367;28;20465;-52
2022/06/12 08:59:36;;;;;;;6.37;2.23;;;;;;;;;;4973649;28;20397;-52
2022/06/12 09:02:06;;;;;;;5.00;2.47;;;;;;;;;;4973116;28;20412;-53
2022/06/12 09:04:34;;;;;;;3.33;2.17;;;;;;;;;;4973324;28;20459;-52
2022/06/12 09:07:05;;;;;;;5.90;2.30;;;;;;;;;;4973240;28;20515;-52
2022/06/12 09:09:45;;;;;;;3.70;1.93;;;;;;;;;;4973393;28;20432;-52
2022/06/12 09:12:19;;;;;;;7.83;2.60;;;;;;;;;;4973158;28;20412;-52
2022/06/12 09:15:08;;;;;;;5.57;2.63;;;;;;;;;;4973354;28;20419;-52
2022/06/12 09:17:34;;;;;;;5.33;2.30;;;;;;;;;;4972994;28;20796;-53
2022/06/12 09:20:10;;;;;;;3.80;1.70;;;;;;;;;;4972969;28;20413;-53
2022/06/12 09:22:36;;;;;;;4.03;1.70;;;;;;;;;;4973191;28;20202;-52
2022/06/12 09:25:22;;;;;;;2.40;1.70;;;;;;;;;;4973134;28;20960;-53
2022/06/12 09:27:48;;;;;;;4.70;1.87;;;;;;;;;;4972782;28;20459;-54
2022/06/12 09:30:23;;;;;;;2.27;1.57;;;;;;;;;;4972895;28;21228;-52
2022/06/12 09:33:08;;;;;;;2.13;1.60;;;;;;;;;;4973071;28;20411;-52
2022/06/12 09:35:42;;;;;;;1.30;0.83;;;;;;;;;;4973022;28;20488;-52
2022/06/12 09:38:20;;;;;;;1.10;0.70;;;;;;;;;;4973216;28;20404;-52
2022/06/12 09:41:05;;;;;;;3.30;1.60;;;;;;;;;;4972762;28;20762;-52
2022/06/12 09:43:31;;;;;;;2.13;1.03;;;;;;;;;;4972890;28;20463;-52
2022/06/12 09:46:16;;;;;;;6.70;1.10;;;;;;;;;;4972788;28;20425;-52
2022/06/12 09:48:47;;;;;;;2.00;1.10;;;;;;;;;;4972935;28;20176;-52
2022/06/12 09:51:21;;;;;;;2.50;0.97;;;;;;;;;;4972662;28;20764;-52
2022/06/12 09:54:05;;;;;;;2.03;1.20;;;;;;;;;;4972846;28;20400;-52
2022/06/12 09:56:41;;;;;;;2.03;1.10;;;;;;;;;;4972843;28;20424;-52
2022/06/12 09:59:26;;;;;;;4.50;1.20;;;;;;;;;;4972975;28;20393;-52
2022/06/12 10:01:55;;;;;;;1.73;1.10;;;;;;;;;;4972642;28;20413;-52
2022/06/12 10:04:36;;;;;;;5.90;1.30;;;;;;;;;;4972728;28;20467;-52
2022/06/12 10:07:08;;;;;;;1.10;0.80;;;;;;;;;;4972699;28;20558;-52
2022/06/12 10:09:41;;;;;;;1.30;0.90;;;;;;;;;;4972701;28;20416;-56
2022/06/12 10:12:09;;;;;;;1.67;0.87;;;;;;;;;;4972591;28;20517;-53
2022/06/12 10:14:37;;;;;;;1.87;1.10;;;;;;;;;;4972695;28;20408;-52
2022/06/12 10:17:14;;;;;;;3.10;1.20;;;;;;;;;;4972636;28;20432;-52
2022/06/12 10:19:52;;;;;;;2.07;1.20;;;;;;;;;;4972475;28;20413;-52
2022/06/12 10:22:18;;;;;;;1.20;0.90;;;;;;;;;;4972465;28;20428;-52
2022/06/12 10:24:44;;;;;;;5.40;1.10;;;;;;;;;;4972680;28;20468;-52
2022/06/12 10:27:11;;;;;;;1.50;0.90;;;;;;;;;;4972576;28;20193;-52
2022/06/12 10:29:45;;;;;;;1.77;1.00;;;;;;;;;;4972471;28;20432;-53
2022/06/12 10:32:14;;;;;;;3.23;1.83;;;;;;;;;;4972310;28;20408;-52
2022/06/12 10:34:40;;;;;;;3.20;1.13;;;;;;;;;;4975223;28;20413;-52
2022/06/12 10:37:32;;;;;;;5.57;1.13;;;;;;;;;;4976061;28;20455;-53
2022/06/12 10:40:05;;;;;;;2.80;1.30;;;;;;;;;;4973164;28;20429;-52
2022/06/12 10:42:31;;;;;;;5.07;1.30;;;;;;;;;;4975980;28;20455;-52
2022/06/12 10:44:58;;;;;;;5.03;1.40;;;;;;;;;;4975836;28;20459;-52
2022/06/12 10:47:24;;;;;;;2.87;1.70;;;;;;;;;;4976489;28;20205;-53
2022/06/12 10:50:02;;;;;;;3.17;1.70;;;;;;;;;;4975836;28;20408;-53
2022/06/12 10:52:28;;;;;;;4.70;3.27;;;;;;;;;;4976332;28;20823;-52
2022/06/12 10:54:54;;;;;;;3.33;1.27;;;;;;;;;;4975800;28;20405;-52
2022/06/12 10:57:26;;;;;;;2.00;1.33;;;;;;;;;;4975784;28;20428;-52
2022/06/12 10:59:51;;;;;;;5.70;1.60;;;;;;;;;;4974438;28;20417;-52
2022/06/12 11:02:17;;;;;;;2.87;1.50;;;;;;;;;;4975673;28;20413;-52
2022/06/12 11:05:02;;;;;;;1.50;1.37;;;;;;;;;;4975690;28;20205;-53
2022/06/12 11:07:44;;;;;;;3.27;1.60;;;;;;;;;;4975620;28;20189;-52
2022/06/12 11:10:16;;;;;;;4.67;2.20;;;;;;;;;;4975330;28;20813;-52
2022/06/12 11:12:42;;;;;;;4.53;1.40;;;;;;;;;;4975518;28;20401;-52
2022/06/12 11:15:21;;;;;;;3.07;1.73;;;;;;;;;;4975493;28;20464;-53
2022/06/12 11:18:02;;;;;;;3.43;1.60;;;;;;;;;;4974140;28;20852;-53
2022/06/12 11:20:47;;;;;;;4.60;1.77;;;;;;;;;;4975121;28;20452;-52
2022/06/12 11:23:18;;;;;;;3.10;1.33;;;;;;;;;;4975362;28;20464;-53
2022/06/12 11:26:03;;;;;;;2.37;1.37;;;;;;;;;;4975315;28;20633;-52
2022/06/12 11:28:29;;;;;;;4.20;1.87;;;;;;;;;;4975157;28;20396;-52
2022/06/12 11:31:10;;;;;;;2.90;1.43;;;;;;;;;;4974574;28;20827;-55
2022/06/12 11:34:02;;;;;;;5.27;2.17;;;;;;;;;;4975163;28;20177;-52
2022/06/12 11:36:31;;;;;;;3.90;2.07;;;;;;;;;;4975534;28;20417;-53
2022/06/12 11:38:57;;;;;;;1.90;1.47;;;;;;;;;;4974999;28;20429;-52
2022/06/12 11:41:23;;;;;;;3.10;1.80;;;;;;;;;;4974652;28;20897;-52
2022/06/12 11:43:56;;;;;;;5.23;1.77;;;;;;;;;;4974904;28;20808;-51
2022/06/12 11:46:22;;;;;;;4.87;1.73;;;;;;;;;;4973694;28;20459;-52
2022/06/12 11:48:54;;;;;;;4.07;2.20;;;;;;;;;;4974871;28;20885;-52
2022/06/12 11:51:35;;;;;;;4.40;2.63;;;;;;;;;;4974917;28;20408;-52
2022/06/12 11:54:16;;;;;;;3.87;1.80;;;;;;;;;;4974780;28;20873;-52
2022/06/12 11:56:51;;;;;;;4.17;1.80;;;;;;;;;;4974699;28;20788;-52
2022/06/12 11:59:37;;;;;;;7.80;1.90;;;;;;;;;;4974670;28;20790;-52
2022/06/12 12:02:12;;;;;;;4.77;1.80;;;;;;;;;;4974470;28;20393;-52
2022/06/12 12:04:38;;;;;;;3.67;1.53;;;;;;;;;;4974667;28;20456;-52
2022/06/12 12:07:11;;;;;;;1.97;1.70;;;;;;;;;;4974543;28;20436;-52
2022/06/12 12:09:49;;;;;;;4.10;1.63;;;;;;;;;;4974493;28;20448;-52
2022/06/12 12:12:21;;;;;;;6.03;2.53;;;;;;;;;;4974133;28;20475;-52
2022/06/12 12:14:48;;;;;;;6.00;1.80;;;;;;;;;;4974391;28;20464;-52
2022/06/12 12:17:22;;;;;;;2.93;1.70;;;;;;;;;;4974294;28;20943;-52
2022/06/12 12:19:48;;;;;;;5.43;1.93;;;;;;;;;;4974268;28;20401;-53
2022/06/12 12:22:24;;;;;;;6.40;1.60;;;;;;;;;;4973995;28;20412;-52
2022/06/12 12:24:53;;;;;;;4.07;2.10;;;;;;;;;;4972906;28;20456;-52
2022/06/12 12:27:34;;;;;;;5.60;2.30;;;;;;;;;;4974209;28;20436;-52
2022/06/12 12:30:01;;;;;;;4.10;1.70;;;;;;;;;;4973847;28;20476;-55
2022/06/12 12:32:29;;;;;;;4.00;2.33;;;;;;;;;;4974138;28;20401;-53
2022/06/12 12:34:55;;;;;;;5.70;2.90;;;;;;;;;;4974020;28;20405;-52
2022/06/12 12:43:14;;;;;;;2.97;1.80;;;;;;;;;;4974020;28;20503;-52
2022/06/12 12:45:40;;;;;;;4.37;2.30;;;;;;;;;;4973751;28;20411;-52
2022/06/12 12:48:14;;;;;;;6.67;2.03;;;;;;;;;;4973663;28;20803;-52
2022/06/12 12:50:43;;;;;;;3.00;1.53;;;;;;;;;;4973442;28;20416;-53
2022/06/12 12:53:18;;;;;;;3.20;2.10;;;;;;;;;;4973665;28;20767;-52
2022/06/12 12:55:44;;;;;;;5.00;1.90;;;;;;;;;;4973398;28;20420;-53
2022/06/12 12:58:18;;;;;;;4.53;2.30;;;;;;;;;;4973534;28;20905;-54
2022/06/12 13:00:45;;;;;;;6.57;2.17;;;;;;;;;;4973312;28;20405;-54
2022/06/12 13:03:22;;;;;;;4.97;2.00;;;;;;;;;;4973389;28;20463;-54
2022/06/12 13:05:48;;;;;;;6.37;2.00;;;;;;;;;;4973244;28;20432;-53
2022/06/12 13:08:24;;;;;;;3.67;2.20;;;;;;;;;;4973435;28;20405;-53
2022/06/12 13:10:53;;;;;;;3.83;1.90;;;;;;;;;;4973147;28;20401;-53
2022/06/12 13:13:38;;;;;;;5.97;2.00;;;;;;;;;;4973394;28;20756;-53
2022/06/12 13:16:06;;;;;;;5.23;2.13;;;;;;;;;;4973224;28;20420;-54
2022/06/12 13:18:33;;;;;;;7.10;2.23;;;;;;;;;;4973233;28;20405;-54
2022/06/12 13:21:04;;;;;;;7.40;2.30;;;;;;;;;;4973157;28;20448;-54
2022/06/12 13:23:39;;;;;;;4.90;2.00;;;;;;;;;;4973125;28;20452;-55
2022/06/12 13:26:07;;;;;;;4.73;2.43;;;;;;;;;;4973200;28;20420;-54
2022/06/12 13:28:34;;;;;;;4.00;2.30;;;;;;;;;;4973088;28;20416;-54
2022/06/12 13:31:02;;;;;;;7.87;2.60;;;;;;;;;;4972833;28;20408;-54
2022/06/12 13:33:35;;;;;;;4.30;1.77;;;;;;;;;;4973074;28;20480;-53
2022/06/12 13:36:10;;;;;;;2.77;1.90;;;;;;;;;;4973039;28;20488;-53
2022/06/12 13:38:45;;;;;;;5.03;2.60;;;;;;;;;;4973041;28;20439;-55
2022/06/12 13:41:26;;;;;;;2.10;1.63;;;;;;;;;;4972355;28;20416;-54
2022/06/12 13:43:53;;;;;;;5.77;2.30;;;;;;;;;;4972915;28;20487;-55
2022/06/12 13:46:18;;;;;;;10.47;2.60;;;;;;;;;;4972821;28;20472;-55
2022/06/12 13:48:45;;;;;;;9.67;2.50;;;;;;;;;;4972392;28;20440;-55
2022/06/12 13:51:23;;;;;;;7.27;2.07;;;;;;;;;;4971947;28;20412;-55
2022/06/12 13:53:50;;;;;;;3.40;2.20;;;;;;;;;;4972038;28;20785;-54
2022/06/12 13:56:18;;;;;;;6.07;2.00;;;;;;;;;;4972183;28;20443;-55
2022/06/12 13:58:52;;;;;;;3.83;2.13;;;;;;;;;;4972226;28;20499;-55
2022/06/12 14:01:18;;;;;;;2.67;1.57;;;;;;;;;;4971700;28;20449;-55
2022/06/12 14:03:49;;;;;;;5.63;1.80;;;;;;;;;;4972067;28;20546;-55
2022/06/12 14:06:17;;;;;;;7.20;2.37;;;;;;;;;;4971821;28;20421;-55
2022/06/12 14:08:44;;;;;;;4.20;2.07;;;;;;;;;;4973118;28;20405;-55
2022/06/12 14:11:21;;;;;;;28.27;21.73;;;;;;;;;;4975061;28;20871;-54
2022/06/12 14:13:47;;;;;;;2.43;2.20;;;;;;;;;;4975427;28;20404;-54
2022/06/12 14:16:18;;;;;;;10.90;7.10;;;;;;;;;;4975204;28;20504;-54
2022/06/12 14:18:55;;;;;;;4.30;2.53;;;;;;;;;;4975139;28;20415;-55
2022/06/12 14:21:23;;;;;;;5.13;2.00;;;;;;;;;;4974931;28;20400;-54
2022/06/12 14:23:50;;;;;;;3.83;1.90;;;;;;;;;;4975090;28;20464;-55
2022/06/12 14:26:25;;;;;;;5.83;2.30;;;;;;;;;;4975051;28;20428;-55
2022/06/12 14:28:51;;;;;;;5.97;2.60;;;;;;;;;;4975109;28;20768;-55
2022/06/12 14:31:17;;;;;;;9.17;2.63;;;;;;;;;;4973589;28;20508;-55
2022/06/12 14:33:43;;;;;;;6.83;2.40;;;;;;;;;;4974607;28;20460;-55
2022/06/12 14:36:24;;;;;;;4.70;2.10;;;;;;;;;;4974828;28;20456;-56
2022/06/12 14:38:50;;;;;;;2.60;2.00;;;;;;;;;;4974673;28;20500;-55
2022/06/12 14:41:17;;;;;;;3.57;2.30;;;;;;;;;;4974391;28;20459;-55
2022/06/12 14:43:43;;;;;;;8.20;3.43;;;;;;;;;;4974545;28;20483;-55
2022/06/12 14:46:16;;;;;;;5.53;2.77;;;;;;;;;;4937372;28;1091759;-55
2022/06/12 14:48:43;;;;;;;9.37;2.43;;;;;;;;;;4975495;28;20425;-57
2022/06/12 14:51:09;;;;;;;3.53;2.03;;;;;;;;;;4975249;28;20511;-55
2022/06/12 14:53:35;;;;;;;3.80;2.00;;;;;;;;;;4975865;28;20421;-56
2022/06/12 14:56:02;;;;;;;3.77;2.77;;;;;;;;;;4975657;28;20455;-56
2022/06/12 14:58:35;;;;;;;4.33;2.40;;;;;;;;;;4974534;28;20422;-55
2022/06/12 15:01:03;;;;;;;3.33;2.10;;;;;;;;;;4963072;28;20524;-57
2022/06/12 15:03:31;;;;;;;3.40;2.00;;;;;;;;;;4975602;28;20452;-55
2022/06/12 15:05:57;;;;;;;4.80;2.27;;;;;;;;;;4975172;28;20935;-55
2022/06/12 15:08:23;;;;;;;7.23;2.27;;;;;;;;;;4975527;28;20405;-55
2022/06/12 15:10:49;;;;;;;3.63;2.37;;;;;;;;;;4974956;28;20413;-55
2022/06/12 15:13:17;;;;;;;2.73;2.10;;;;;;;;;;4975489;28;20498;-55
2022/06/12 15:15:44;;;;;;;5.03;2.37;;;;;;;;;;4975158;28;20476;-55
2022/06/12 15:18:11;;;;;;;3.37;2.10;;;;;;;;;;4975539;28;20413;-54